Time;durP1;ratioP1;P1;durP2;ratioP2;P2;SDS_P1;SDS_P2;PMS_P1;PMS_P2;Temp;Humidity;BMP_temperature;BMP_pressure;BME280_temperature;BME280_humidity;BME280_pressure;Samples;Min_cycle;Max_cycle;Signal;HPM_P1;HPM_P2
2022/06/02 00:01:07;;;;;;;3.50;3.17;;;;;;;24.30;46.14;101123.13;6191868;23;20024;-81
2022/06/02 00:03:42;;;;;;;9.25;3.38;;;;;;;24.13;46.73;101083.94;6181136;23;20024;-81
2022/06/02 00:06:32;;;;;;;5.28;3.58;;;;;;;24.46;46.04;101128.06;6192061;23;20023;-81
2022/06/02 00:09:25;;;;;;;6.85;3.92;;;;;;;24.30;46.38;101117.69;6191677;23;20098;-80
2022/06/02 00:11:58;;;;;;;5.82;3.45;;;;;;;24.18;46.09;101098.53;6191903;23;20078;-82
2022/06/02 00:14:34;;;;;;;4.38;3.28;;;;;;;23.96;46.35;101062.75;6191725;23;20453;-81
2022/06/02 00:17:14;;;;;;;7.68;4.45;;;;;;;23.70;46.63;101035.69;6191362;23;20020;-82
2022/06/02 00:19:50;;;;;;;7.03;3.30;;;;;;;23.22;46.09;100953.66;6191279;23;20048;-81
2022/06/02 00:22:29;;;;;;;4.47;3.13;;;;;;;24.23;46.09;101128.56;6181597;23;20075;-81
2022/06/02 00:25:41;;;;;;;10.48;3.88;;;;;;;24.28;46.07;101133.34;6191643;23;20017;-81
2022/06/02 00:28:37;;;;;;;5.18;3.90;;;;;;;24.22;46.38;101132.31;6217967;23;20021;-81
2022/06/02 00:31:11;;;;;;;6.78;3.92;;;;;;;24.16;46.23;101122.34;6207934;23;20020;-81
2022/06/02 00:33:55;;;;;;;8.02;3.47;;;;;;;23.80;45.69;101065.91;6192526;23;20021;-81
2022/06/02 00:36:32;;;;;;;7.13;3.28;;;;;;;24.23;45.84;101134.00;6220091;23;20021;-83
2022/06/02 00:38:59;;;;;;;6.68;3.40;;;;;;;24.15;46.43;101122.53;6183323;23;20082;-81
2022/06/02 00:41:40;;;;;;;4.72;3.30;;;;;;;23.94;46.85;101102.78;6193308;23;20067;-80
2022/06/02 00:44:14;;;;;;;6.90;3.08;;;;;;;23.94;46.56;101112.81;6193341;23;20400;-80
2022/06/02 00:46:58;;;;;;;4.03;3.30;;;;;;;24.06;46.99;101139.06;6193464;23;20482;-79
2022/06/02 00:49:56;;;;;;;8.90;4.15;;;;;;;24.02;46.94;101143.22;6182983;23;20021;-80
2022/06/02 00:52:35;;;;;;;3.55;3.10;;;;;;;23.92;46.98;101129.28;6193052;23;20020;-81
2022/06/02 00:58:09;;;;;;;6.05;3.63;;;;;;;24.00;46.66;101158.88;6210155;23;20083;-81
2022/06/02 01:00:44;;;;;;;9.65;3.83;;;;;;;23.91;46.52;101137.59;6183390;23;20050;-80
2022/06/02 01:03:19;;;;;;;5.13;3.40;;;;;;;23.61;46.73;101079.25;6219902;23;20024;-80
2022/06/02 01:06:01;;;;;;;7.68;3.85;;;;;;;23.93;47.55;101144.47;6219966;23;20025;-81
2022/06/02 01:08:31;;;;;;;6.32;4.38;;;;;;;23.17;49.35;101026.56;6193036;23;20393;-81
2022/06/02 01:11:09;;;;;;;6.72;4.50;;;;;;;22.76;50.62;100964.50;6193491;23;20020;-81
2022/06/02 01:14:12;;;;;;;7.68;5.05;;;;;;;23.32;50.34;101077.00;6183916;23;20086;-81
2022/06/02 01:16:48;;;;;;;10.10;5.28;;;;;;;23.29;50.34;101078.25;6194564;23;20317;-81
2022/06/02 01:19:36;;;;;;;6.97;5.05;;;;;;;23.68;50.70;101142.41;6197802;23;20020;-81
2022/06/02 01:22:24;;;;;;;4.32;3.75;;;;;;;23.30;49.69;101074.47;6202817;23;20444;-81
2022/06/02 01:25:15;;;;;;;7.72;3.80;;;;;;;22.67;48.03;100972.00;6195165;23;20342;-82
2022/06/02 01:28:17;;;;;;;9.82;3.72;;;;;;;23.83;48.12;101152.22;6194452;23;20287;-81
2022/06/02 01:30:48;;;;;;;6.82;3.70;;;;;;;23.90;48.05;101144.91;6201456;23;20448;-81
2022/06/02 01:33:34;;;;;;;6.82;4.00;;;;;;;23.76;48.55;101146.81;6193926;23;20420;-80
2022/06/02 01:36:20;;;;;;;6.13;3.85;;;;;;;23.71;48.78;101140.31;6182806;23;20017;-80
2022/06/02 01:39:08;;;;;;;15.02;4.25;;;;;;;23.66;49.11;101144.50;6192439;23;20357;-81
2022/06/02 01:41:59;;;;;;;8.38;3.78;;;;;;;23.21;49.19;101075.75;6182803;23;20043;-81
2022/06/02 01:45:04;;;;;;;4.65;3.67;;;;;;;23.31;49.63;101113.25;6192172;23;20027;-80
2022/06/02 01:47:41;;;;;;;4.95;3.83;;;;;;;23.45;49.91;101148.28;6183045;23;20031;-81
2022/06/02 01:50:30;;;;;;;5.15;3.03;;;;;;;23.43;50.39;101149.53;6182955;23;20380;-80
2022/06/02 01:53:09;;;;;;;11.25;4.00;;;;;;;23.45;50.23;101153.69;6192982;23;20740;-81
2022/06/02 01:55:54;;;;;;;7.75;4.15;;;;;;;23.20;50.60;101129.06;6182732;23;20179;-80
2022/06/02 01:58:56;;;;;;;5.68;3.60;;;;;;;23.27;51.41;101139.09;6218891;23;20361;-79
2022/06/02 02:02:00;;;;;;;7.43;4.10;;;;;;;22.98;51.05;101105.94;6163419;23;20021;-80
2022/06/02 02:04:53;;;;;;;10.25;4.72;;;;;;;23.25;50.66;101155.53;6192299;23;20047;-79
2022/06/02 02:07:33;;;;;;;8.02;4.25;;;;;;;23.16;51.24;101137.84;6192376;23;20024;-80
2022/06/02 02:10:18;;;;;;;6.22;3.95;;;;;;;23.18;51.15;101158.25;6194456;23;20039;-80
2022/06/02 02:13:18;;;;;;;9.43;4.78;;;;;;;23.17;51.31;101156.56;6194407;23;20211;-81
2022/06/02 02:15:45;;;;;;;5.53;3.95;;;;;;;23.19;51.48;101156.38;6191038;23;20071;-81
2022/06/02 02:18:31;;;;;;;6.15;4.18;;;;;;;22.55;52.11;101057.50;6192894;23;20024;-80
2022/06/02 02:21:13;;;;;;;9.73;4.32;;;;;;;22.86;52.27;101118.38;6219443;23;20029;-80
2022/06/02 02:24:00;;;;;;;6.00;4.15;;;;;;;22.32;52.34;101037.06;6192648;23;20013;-81
2022/06/02 02:27:04;;;;;;;4.38;3.97;;;;;;;23.06;52.69;101161.75;6219170;23;20079;-82
2022/06/02 02:29:36;;;;;;;5.03;4.43;;;;;;;23.01;52.87;101160.50;6153046;23;20479;-81
2022/06/02 02:32:10;;;;;;;8.02;4.88;;;;;;;22.75;53.01;101123.34;6182452;23;20020;-79
2022/06/02 02:34:48;;;;;;;6.63;4.53;;;;;;;22.92;53.21;101164.41;6192141;23;20024;-80
2022/06/02 02:37:27;;;;;;;8.68;5.20;;;;;;;22.90;53.08;101168.38;6192496;23;20070;-80
2022/06/02 02:40:01;;;;;;;5.90;4.20;;;;;;;22.64;52.57;101113.09;6192841;23;20082;-81
2022/06/02 02:42:35;;;;;;;5.20;4.28;;;;;;;22.61;53.06;101114.34;6192213;23;20021;-79
2022/06/02 02:45:25;;;;;;;7.22;4.22;;;;;;;22.62;53.41;101131.41;6191858;23;20067;-80
2022/06/02 02:48:03;;;;;;;7.82;4.65;;;;;;;22.74;53.37;101150.59;6191759;23;20024;-80
2022/06/02 02:50:43;;;;;;;8.82;4.20;;;;;;;22.75;53.86;101157.69;6192439;23;20071;-81
2022/06/02 02:53:18;;;;;;;5.57;4.20;;;;;;;22.69;53.74;101170.16;6208999;23;20024;-79
2022/06/02 02:55:55;;;;;;;7.13;4.82;;;;;;;22.12;53.60;101076.69;6182718;23;20024;-83
2022/06/02 02:58:47;;;;;;;5.97;4.20;;;;;;;22.65;53.81;101174.31;6193497;23;20020;-80
2022/06/02 03:01:26;;;;;;;7.38;4.85;;;;;;;22.26;53.93;101116.31;6198113;23;20524;-81
2022/06/02 03:03:59;;;;;;;7.93;4.32;;;;;;;22.65;54.24;101174.31;6211428;23;20040;-82
2022/06/02 03:06:31;;;;;;;6.07;4.78;;;;;;;22.20;54.23;101108.97;6217217;23;20372;-80
2022/06/02 03:09:00;;;;;;;;;;;;;;;22.56;54.73;101175.53;6183598;23;20388;-81
2022/06/02 03:11:42;;;;;;;12.45;4.60;;;;;;;22.56;54.58;101170.13;6182552;23;20307;-79
2022/06/02 03:14:27;;;;;;;;;;;;;;;22.49;54.79;101178.19;6192880;23;20075;-80
2022/06/02 03:17:03;;;;;;;8.90;5.13;;;;;;;22.48;54.91;101173.84;6192001;23;19915;-81
2022/06/02 03:19:50;;;;;;;6.35;5.00;;;;;;;22.48;55.17;101181.94;6192301;23;20013;-81
2022/06/02 03:22:39;;;;;;;6.00;4.57;;;;;;;22.48;55.33;101183.81;6192054;23;20020;-82
2022/06/02 03:25:15;;;;;;;10.07;5.55;;;;;;;22.50;55.31;101182.59;6181226;23;20024;-81
2022/06/02 03:27:49;;;;;;;11.00;5.00;;;;;;;22.49;55.04;101185.47;6191978;23;20063;-82
2022/06/02 03:30:22;;;;;;;5.75;5.20;;;;;;;22.19;55.35;101131.63;6192393;23;20419;-79
2022/06/02 03:33:00;;;;;;;7.40;5.35;;;;;;;22.45;55.42;101190.44;6182463;23;20024;-81
2022/06/02 03:35:38;;;;;;;6.32;5.38;;;;;;;22.42;55.84;101188.16;6182768;23;20025;-82
2022/06/02 03:38:14;;;;;;;8.15;5.05;;;;;;;22.42;56.34;101190.03;6192650;23;20070;-81
2022/06/02 03:41:17;;;;;;;12.00;5.45;;;;;;;22.39;55.99;101191.25;6192381;23;20098;-81
2022/06/02 03:44:20;;;;;;;8.68;5.47;;;;;;;22.26;56.37;101186.63;6185132;23;20479;-82
2022/06/02 03:47:11;;;;;;;6.38;5.47;;;;;;;22.30;56.80;101198.69;6173788;23;20453;-80
2022/06/02 03:50:07;;;;;;;6.88;5.50;;;;;;;22.22;56.59;101196.16;6198135;23;20830;-80
2022/06/02 03:52:54;;;;;;;6.95;5.38;;;;;;;22.25;57.03;101200.34;6198936;23;20020;-80
2022/06/02 03:55:40;;;;;;;12.50;4.95;;;;;;;22.24;57.33;101202.22;6200415;23;20473;-81
2022/06/02 03:58:25;;;;;;;8.65;5.35;;;;;;;22.17;57.02;101187.78;6194047;23;20460;-81
2022/06/02 04:01:00;;;;;;;5.97;5.47;;;;;;;22.02;57.38;101168.13;6191339;23;20017;-79
2022/06/02 04:04:05;;;;;;;5.95;5.22;;;;;;;22.08;57.93;101173.56;6181246;23;20244;-80
2022/06/02 04:06:49;;;;;;;7.78;5.32;;;;;;;22.30;57.76;101211.38;6191069;23;20079;-81
2022/06/02 04:09:28;;;;;;;7.07;5.80;;;;;;;21.87;57.94;101143.91;6191274;23;20035;-79
2022/06/02 04:15:36;;;;;;;13.77;6.00;;;;;;;22.27;57.63;101219.91;6207868;23;20063;-79
2022/06/02 04:18:30;;;;;;;14.15;6.25;;;;;;;22.10;57.46;101192.31;6207724;23;20021;-80
2022/06/02 04:21:15;;;;;;;11.30;6.20;;;;;;;22.25;57.54;101222.78;6190924;23;20025;-81
2022/06/02 04:24:00;;;;;;;11.95;6.38;;;;;;;22.28;57.53;101225.13;6190899;23;20024;-80
2022/06/02 04:26:49;;;;;;;10.52;6.07;;;;;;;22.31;58.29;101223.88;6190730;23;20177;-81
2022/06/02 04:29:40;;;;;;;13.02;6.25;;;;;;;22.30;58.45;101233.84;6187251;23;20020;-80
2022/06/02 04:32:40;;;;;;;11.00;5.83;;;;;;;22.31;58.48;101235.53;6207327;23;21517;-80
2022/06/02 04:35:07;;;;;;;10.63;5.97;;;;;;;22.36;58.54;101241.19;6190916;23;20031;-79
2022/06/02 04:37:43;;;;;;;10.80;5.43;;;;;;;22.36;59.09;101252.00;6217259;23;20016;-79
2022/06/02 04:40:37;;;;;;;9.82;5.90;;;;;;;22.37;58.84;101269.06;6181260;23;20021;-80
2022/06/02 04:43:20;;;;;;;12.18;6.45;;;;;;;22.40;58.95;101263.25;6191231;23;20021;-80
2022/06/02 04:46:12;;;;;;;9.05;6.05;;;;;;;22.45;59.52;101276.19;6217004;23;20016;-81
2022/06/02 04:49:08;;;;;;;10.07;6.40;;;;;;;22.40;59.80;101264.09;6190685;23;20300;-81
2022/06/02 04:51:50;;;;;;;8.38;5.55;;;;;;;22.18;59.35;101235.41;6217543;23;20096;-80
2022/06/02 04:54:28;;;;;;;8.30;5.82;;;;;;;22.49;58.34;101293.69;6190449;23;20063;-80
2022/06/02 04:57:00;;;;;;;9.60;5.78;;;;;;;22.55;58.47;101287.47;6191974;23;20070;-80
2022/06/02 04:59:30;;;;;;;8.52;5.38;;;;;;;22.18;57.61;101221.88;6190662;23;20021;-82
2022/06/02 05:02:44;;;;;;;8.75;5.88;;;;;;;22.67;57.44;101304.84;6217302;23;20312;-81
2022/06/02 05:05:27;;;;;;;14.65;6.00;;;;;;;22.73;57.36;101305.91;6172129;23;20012;-81
2022/06/02 05:08:11;;;;;;;7.43;5.57;;;;;;;22.70;56.96;101295.50;6181292;23;20399;-79
2022/06/02 05:10:45;;;;;;;8.30;5.45;;;;;;;22.55;56.41;101255.00;6190890;23;20075;-78
2022/06/02 05:13:43;;;;;;;7.70;5.53;;;;;;;22.08;56.75;101167.34;6180860;23;20361;-81
2022/06/02 05:16:55;;;;;;;9.98;5.15;;;;;;;22.22;55.34;101163.72;6190612;23;20096;-81
2022/06/02 05:19:47;;;;;;;8.73;5.57;;;;;;;23.12;54.81;101308.00;6144870;23;20380;-79
2022/06/02 05:22:35;;;;;;;7.53;5.05;;;;;;;23.16;55.94;101308.47;6182451;23;20635;-79
2022/06/02 05:25:23;;;;;;;8.95;5.43;;;;;;;23.19;56.03;101311.56;6192330;23;20020;-79
2022/06/02 05:27:58;;;;;;;10.93;5.57;;;;;;;23.27;55.27;101312.44;6192935;23;20619;-80
2022/06/02 05:30:34;;;;;;;7.63;5.25;;;;;;;23.36;54.89;101319.34;6182804;23;20028;-79
2022/06/02 05:33:39;;;;;;;6.40;5.40;;;;;;;23.45;54.30;101323.56;6192552;23;20020;-79
2022/06/02 05:36:20;;;;;;;6.72;5.10;;;;;;;23.49;54.70;101322.09;6132742;23;20098;-81
2022/06/02 05:39:01;;;;;;;11.50;5.80;;;;;;;23.36;54.31;101295.81;6183135;23;20016;-80
2022/06/02 05:41:59;;;;;;;12.63;5.90;;;;;;;23.56;54.04;101320.22;6183664;23;20658;-79
2022/06/02 05:44:34;;;;;;;7.28;6.07;;;;;;;23.21;53.59;101259.94;6196083;23;20362;-80
2022/06/02 05:47:27;;;;;;;6.63;5.55;;;;;;;23.75;53.41;101326.78;6209952;23;20349;-80
2022/06/02 05:50:29;;;;;;;6.32;5.75;;;;;;;23.87;52.99;101324.28;6192704;23;20087;-81
2022/06/02 05:53:10;;;;;;;12.93;6.22;;;;;;;23.22;53.03;101219.06;6181960;23;20396;-80
2022/06/02 05:56:03;;;;;;;5.93;5.28;;;;;;;23.85;53.26;101315.53;6182301;23;20017;-79
2022/06/02 05:58:56;;;;;;;9.35;6.28;;;;;;;23.89;53.31;101316.78;6192021;23;20031;-80
2022/06/02 06:01:50;;;;;;;8.15;5.95;;;;;;;23.96;52.56;101324.91;6217718;23;20401;-81
2022/06/02 06:04:35;;;;;;;8.38;5.78;;;;;;;23.99;53.04;101317.22;6192671;23;20093;-81
2022/06/02 06:07:16;;;;;;;6.93;5.82;;;;;;;23.42;52.39;101220.97;6219109;23;20013;-80
2022/06/02 06:09:58;;;;;;;7.43;5.87;;;;;;;23.99;52.02;101310.97;6185190;23;20074;-81
2022/06/02 06:12:43;;;;;;;8.77;5.68;;;;;;;24.20;51.69;101331.59;6195947;23;20020;-81
2022/06/02 06:15:26;;;;;;;6.13;5.50;;;;;;;24.09;51.41;101300.53;6213452;23;20016;-81
2022/06/02 06:18:04;;;;;;;10.80;5.93;;;;;;;23.59;51.64;101219.56;6196446;23;20522;-81
2022/06/02 06:20:51;;;;;;;6.57;5.68;;;;;;;24.43;51.75;101323.88;6195660;23;20024;-81
2022/06/02 06:23:42;;;;;;;7.50;6.20;;;;;;;24.34;51.84;101325.13;6218705;23;20742;-81
2022/06/02 06:26:12;;;;;;;7.55;6.13;;;;;;;24.27;51.50;101311.59;6218626;23;20055;-81
2022/06/02 06:29:11;;;;;;;7.32;5.13;;;;;;;24.53;50.70;101321.56;6191568;23;20126;-81
2022/06/02 06:32:13;;;;;;;7.57;5.35;;;;;;;24.58;50.65;101336.41;6182558;23;20021;-81
2022/06/02 06:34:45;;;;;;;10.93;5.38;;;;;;;24.33;50.90;101290.91;6191306;23;20449;-81
2022/06/02 06:37:20;;;;;;;7.93;5.28;;;;;;;24.46;50.52;101318.03;6180650;23;20460;-80
2022/06/02 06:40:01;;;;;;;16.70;6.57;;;;;;;24.67;50.46;101318.84;6181353;23;20179;-80
2022/06/02 06:43:00;;;;;;;;;;;;;;;24.65;51.14;101337.22;6216459;23;20253;-79
2022/06/02 06:45:37;;;;;;;12.02;5.82;;;;;;;24.69;51.18;101330.34;6140792;23;20399;-79
2022/06/02 06:48:41;;;;;;;9.60;5.55;;;;;;;24.72;51.08;101327.19;6180493;23;20027;-81
2022/06/02 06:51:17;;;;;;;6.90;5.80;;;;;;;24.79;50.17;101319.03;6069050;23;20017;-80
2022/06/02 06:54:02;;;;;;;12.43;6.13;;;;;;;24.90;50.08;101335.50;6181720;23;20032;-81
2022/06/02 06:56:36;;;;;;;11.77;5.50;;;;;;;23.58;50.25;101112.19;6191801;23;20176;-80
2022/06/02 06:59:39;;;;;;;8.90;5.75;;;;;;;24.53;50.02;101264.59;6191535;23;20441;-81
2022/06/02 07:02:27;;;;;;;18.30;6.47;;;;;;;24.89;49.76;101327.56;6191309;23;20698;-80
2022/06/02 07:05:04;;;;;;;8.82;5.53;;;;;;;24.79;50.58;101321.75;6218025;23;20079;-80
2022/06/02 07:07:53;;;;;;;9.98;5.43;;;;;;;24.64;51.15;101292.13;6191717;23;20392;-80
2022/06/02 07:10:58;;;;;;;10.48;5.53;;;;;;;24.91;51.28;101342.59;6218080;23;20051;-81
2022/06/02 07:13:31;;;;;;;10.07;5.95;;;;;;;24.87;51.14;101316.91;6175523;23;20020;-80
2022/06/02 07:16:08;;;;;;;12.38;6.55;;;;;;;25.12;50.67;101337.91;6181698;23;20056;-79
2022/06/02 07:19:09;;;;;;;7.43;5.55;;;;;;;25.20;49.98;101323.31;6181242;23;20476;-78
2022/06/02 07:21:56;;;;;;;6.70;5.47;;;;;;;25.19;49.87;101321.63;6191792;23;20094;-81
2022/06/02 07:24:41;;;;;;;8.90;5.45;;;;;;;25.29;49.51;101322.84;6191849;23;20025;-80
2022/06/02 07:27:28;;;;;;;6.70;5.20;;;;;;;25.16;49.56;101312.81;6190986;23;20460;-79
2022/06/02 07:30:51;;;;;;;12.30;5.90;;;;;;;25.26;51.08;101320.53;6181427;23;20396;-79
2022/06/02 07:33:32;;;;;;;7.93;5.63;;;;;;;25.04;50.50;101290.09;6032784;23;20030;-82
2022/06/02 07:36:40;;;;;;;11.45;6.30;;;;;;;25.31;49.65;101320.72;6042678;23;20026;-79
2022/06/02 07:39:28;;;;;;;9.27;5.50;;;;;;;24.71;49.29;101209.63;6186079;23;20013;-80
2022/06/02 07:42:20;;;;;;;5.43;4.93;;;;;;;25.40;49.03;101328.66;6190885;23;20384;-80
2022/06/02 07:45:03;;;;;;;;;;;;;;;25.34;49.90;101331.19;6192155;23;20075;-79
2022/06/02 07:47:53;;;;;;;7.97;6.13;;;;;;;25.43;49.56;101315.44;6190741;23;19919;-80
2022/06/02 07:50:28;;;;;;;11.65;6.80;;;;;;;25.38;48.98;101298.97;6189957;23;20024;-80
2022/06/02 07:53:11;;;;;;;15.85;6.25;;;;;;;25.52;49.48;101322.28;6191059;23;20652;-80
2022/06/02 07:55:56;;;;;;;10.98;6.97;;;;;;;25.63;48.82;101322.66;6190889;23;20016;-80
2022/06/02 07:58:29;;;;;;;10.63;6.20;;;;;;;25.36;49.46;101296.44;6181009;23;20448;-79
2022/06/02 08:01:17;;;;;;;9.35;5.65;;;;;;;25.31;48.88;101263.66;6191275;23;20024;-81
2022/06/02 08:04:11;;;;;;;7.95;5.97;;;;;;;25.76;50.20;101320.69;6180914;23;20017;-81
2022/06/02 08:06:47;;;;;;;7.40;6.00;;;;;;;25.67;48.79;101286.66;6182519;23;20031;-82
2022/06/02 08:09:49;;;;;;;10.38;6.20;;;;;;;25.96;49.24;101322.44;6191954;23;20016;-81
2022/06/02 08:12:39;;;;;;;9.45;5.85;;;;;;;25.97;48.72;101307.78;6166116;23;20024;-80
2022/06/02 08:15:23;;;;;;;7.22;6.18;;;;;;;25.16;47.41;101166.13;6191198;23;20071;-80
2022/06/02 08:18:17;;;;;;;8.75;5.40;;;;;;;26.16;48.11;101328.56;6192143;23;20020;-80
2022/06/02 08:21:15;;;;;;;9.57;6.10;;;;;;;26.11;48.59;101325.66;6182153;23;20075;-81
2022/06/02 08:24:08;;;;;;;8.48;6.18;;;;;;;25.94;47.55;101270.16;6217367;23;20345;-80
2022/06/02 08:27:06;;;;;;;7.25;5.85;;;;;;;26.42;47.58;101329.38;6190730;23;20021;-80
2022/06/02 08:29:58;;;;;;;9.10;5.70;;;;;;;26.42;47.41;101332.09;6151552;23;20318;-81
2022/06/02 08:32:34;;;;;;;;;;;;;;;26.41;47.72;101327.72;6189942;23;20029;-81
2022/06/02 08:35:19;;;;;;;7.78;6.38;;;;;;;26.57;47.35;101329.88;6189991;23;19916;-83
2022/06/02 08:38:11;;;;;;;7.90;6.25;;;;;;;26.55;48.36;101329.28;6180983;23;20036;-80
2022/06/02 08:40:46;;;;;;;9.45;6.15;;;;;;;26.53;48.20;101328.69;6216377;23;20149;-81
2022/06/02 08:43:32;;;;;;;8.50;6.43;;;;;;;26.71;48.68;101340.66;6191318;23;20016;-81
2022/06/02 08:46:44;;;;;;;9.07;6.93;;;;;;;25.31;48.50;101107.94;6191857;23;20020;-81
2022/06/02 08:50:10;;;;;;;9.77;6.63;;;;;;;26.72;48.29;101342.31;6191031;23;20063;-81
2022/06/02 08:52:45;;;;;;;9.57;6.50;;;;;;;26.72;47.92;101331.41;6147315;23;20055;-81
2022/06/02 08:55:50;;;;;;;13.15;8.00;;;;;;;26.81;47.13;101344.50;6181436;23;20542;-80
2022/06/02 08:58:27;;;;;;;10.10;7.40;;;;;;;26.75;47.50;101323.63;6193890;23;20055;-80
2022/06/02 09:01:10;;;;;;;11.85;6.90;;;;;;;26.97;47.58;101347.72;6193810;23;20373;-80
2022/06/02 09:03:59;;;;;;;7.97;7.18;;;;;;;27.10;47.26;101349.44;6183175;23;20502;-79
2022/06/02 09:06:38;;;;;;;7.93;7.13;;;;;;;27.10;47.19;101357.63;6189091;23;20017;-79
2022/06/02 09:09:42;;;;;;;13.13;7.70;;;;;;;27.09;47.67;101356.78;6219577;23;20214;-79
2022/06/02 09:12:17;;;;;;;12.02;7.43;;;;;;;27.14;47.32;101358.81;6192926;23;20365;-79
2022/06/02 09:15:20;;;;;;;17.75;8.05;;;;;;;27.10;47.64;101360.34;6192977;23;20012;-79
2022/06/02 09:18:10;;;;;;;12.38;7.32;;;;;;;27.11;48.15;101345.63;6193182;23;20087;-80
2022/06/02 09:20:57;;;;;;;14.55;7.95;;;;;;;27.30;47.88;101354.66;6182551;23;20083;-80
2022/06/02 09:23:45;;;;;;;10.57;8.57;;;;;;;27.15;48.04;101323.16;6192454;23;20036;-80
2022/06/02 09:26:28;;;;;;;11.90;8.40;;;;;;;27.21;47.79;101286.84;6192349;23;20044;-81
2022/06/02 09:29:03;;;;;;;12.05;8.65;;;;;;;27.75;47.40;101341.47;6182430;23;20028;-81
2022/06/02 09:32:12;;;;;;;17.20;9.90;;;;;;;27.58;47.31;101305.00;6192168;23;20047;-82
2022/06/02 09:35:02;;;;;;;11.45;9.23;;;;;;;27.77;48.60;101327.56;6182260;23;20024;-84
2022/06/02 09:37:35;;;;;;;14.35;9.25;;;;;;;27.98;47.57;101334.41;6192072;23;20025;-80
2022/06/02 09:40:21;;;;;;;12.93;9.55;;;;;;;28.27;45.63;101333.50;6219012;23;20020;-80
2022/06/02 09:43:07;;;;;;;11.85;9.30;;;;;;;27.89;45.93;101272.00;6182353;23;20031;-80
2022/06/02 09:46:05;;;;;;;10.15;8.90;;;;;;;28.37;45.88;101332.91;6192522;23;20070;-82
2022/06/02 09:49:29;;;;;;;14.20;9.98;;;;;;;28.35;45.25;101326.84;6188109;23;20270;-82
2022/06/02 09:52:04;;;;;;;15.82;9.82;;;;;;;28.31;45.53;101329.22;6183091;23;20111;-81
2022/06/02 09:54:59;;;;;;;10.40;8.95;;;;;;;28.09;45.67;101301.69;6182211;23;20160;-81
2022/06/02 09:57:58;;;;;;;10.50;9.07;;;;;;;28.52;45.18;101329.72;6191728;23;20025;-80
2022/06/02 10:00:43;;;;;;;12.35;9.48;;;;;;;28.37;45.72;101277.47;6191665;23;20042;-81
2022/06/02 10:03:28;;;;;;;12.52;9.57;;;;;;;28.69;45.09;101322.50;6187858;23;20051;-82
2022/06/02 10:06:17;;;;;;;15.25;9.82;;;;;;;28.23;45.74;101253.16;6178387;23;20491;-82
2022/06/02 10:09:05;;;;;;;11.60;9.85;;;;;;;28.85;44.96;101322.81;6181955;23;20020;-81
2022/06/02 10:15:13;;;;;;;13.05;9.52;;;;;;;29.25;44.23;101328.31;6218985;23;20032;-83
2022/06/02 10:18:00;;;;;;;13.70;11.02;;;;;;;29.29;43.51;101317.72;6218849;23;20055;-80
2022/06/02 10:20:48;;;;;;;10.85;9.07;;;;;;;29.49;44.04;101312.63;6218158;23;20472;-79
2022/06/02 10:23:51;;;;;;;18.27;10.57;;;;;;;29.51;43.65;101321.41;6191794;23;20063;-80
2022/06/02 10:27:11;;;;;;;12.90;10.57;;;;;;;29.55;44.03;101299.88;6191703;23;20108;-81
2022/06/02 10:30:15;;;;;;;14.98;10.27;;;;;;;29.69;44.19;101300.44;6056852;23;20599;-81
2022/06/02 10:32:52;;;;;;;10.68;9.57;;;;;;;29.88;43.13;101321.03;6042913;23;20463;-80
2022/06/02 10:36:06;;;;;;;19.63;9.13;;;;;;;29.94;42.16;101325.47;6166212;23;20091;-81
2022/06/02 10:39:05;;;;;;;18.42;10.13;;;;;;;30.15;41.80;101303.94;6126369;23;20020;-80
2022/06/02 10:41:43;;;;;;;12.82;10.02;;;;;;;30.37;41.69;101318.53;6166914;23;20020;-82
2022/06/02 10:44:19;;;;;;;14.30;10.75;;;;;;;30.56;41.44;101307.28;6181648;23;20100;-81
2022/06/02 10:46:59;;;;;;;11.82;9.40;;;;;;;30.57;41.40;101307.03;6218294;23;20103;-81
2022/06/02 10:49:38;;;;;;;12.45;9.85;;;;;;;30.35;40.97;101259.63;6191761;23;20021;-81
2022/06/02 10:52:23;;;;;;;12.20;9.57;;;;;;;30.82;41.50;101306.53;6191552;23;20550;-81
2022/06/02 10:55:27;;;;;;;17.30;10.82;;;;;;;30.85;40.58;101297.84;6191292;23;20039;-83
2022/06/02 10:58:12;;;;;;;11.68;9.40;;;;;;;31.03;40.48;101304.09;6192029;23;20025;-82
2022/06/02 11:01:07;;;;;;;14.70;10.18;;;;;;;31.27;39.89;101296.41;6191704;23;20024;-82
2022/06/02 11:03:41;;;;;;;11.77;9.88;;;;;;;31.54;39.84;101290.94;6190881;23;20051;-82
2022/06/02 11:06:37;;;;;;;12.38;9.85;;;;;;;30.65;39.17;101139.44;6191733;23;20028;-81
2022/06/02 11:09:22;;;;;;;13.00;10.23;;;;;;;31.62;39.33;101284.97;6123348;23;20027;-80
2022/06/02 11:12:37;;;;;;;13.75;10.60;;;;;;;31.71;38.86;101277.09;6191803;23;20024;-82
2022/06/02 11:15:32;;;;;;;12.88;10.35;;;;;;;31.68;39.08;101272.97;6191716;23;20524;-82
2022/06/02 11:18:30;;;;;;;21.13;15.07;;;;;;;31.76;39.38;101290.84;6191349;23;20257;-82
2022/06/02 11:21:00;;;;;;;13.45;10.57;;;;;;;31.94;39.23;101286.88;6217276;23;20373;-81
2022/06/02 11:23:57;;;;;;;16.75;11.25;;;;;;;32.14;38.98;101284.31;6180953;23;20071;-82
2022/06/02 11:26:28;;;;;;;16.30;11.43;;;;;;;31.95;38.15;101263.88;6217299;23;20377;-83
2022/06/02 11:29:12;;;;;;;15.27;10.18;;;;;;;32.10;38.09;101279.63;6208983;23;20029;-80
2022/06/02 11:31:57;;;;;;;16.15;10.73;;;;;;;32.12;38.17;101272.75;6181173;23;20017;-82
2022/06/02 11:34:45;;;;;;;15.40;10.82;;;;;;;32.31;38.53;101277.84;6217862;23;20016;-81
2022/06/02 11:37:44;;;;;;;11.93;10.23;;;;;;;32.68;38.29;101268.72;6191099;23;20071;-82
2022/06/02 11:40:37;;;;;;;14.90;11.80;;;;;;;32.88;37.68;101257.78;6185487;23;20023;-81
2022/06/02 11:43:24;;;;;;;20.88;11.80;;;;;;;33.06;37.00;101264.75;6190956;23;20468;-82
2022/06/02 11:46:10;;;;;;;15.23;10.25;;;;;;;32.84;36.58;101218.16;6181242;23;20372;-83
2022/06/02 11:48:59;;;;;;;17.85;11.20;;;;;;;33.23;37.14;101267.22;6191024;23;20031;-82
2022/06/02 11:51:57;;;;;;;16.27;12.50;;;;;;;33.59;36.85;101267.31;6181270;23;20023;-81
2022/06/02 11:54:33;;;;;;;12.20;10.80;;;;;;;33.78;36.43;101262.91;6208125;23;20016;-81
2022/06/02 11:57:08;;;;;;;14.02;10.35;;;;;;;33.74;36.66;101226.03;6195273;23;20106;-80
2022/06/02 11:59:56;;;;;;;20.02;11.90;;;;;;;34.03;35.99;101259.31;6191795;23;20043;-81
2022/06/02 12:02:35;;;;;;;11.82;10.20;;;;;;;34.03;35.54;101244.69;6190807;23;20051;-81
2022/06/02 12:05:41;;;;;;;22.58;9.80;;;;;;;34.17;35.57;101243.03;6217413;23;20016;-79
2022/06/02 12:08:45;;;;;;;13.05;11.15;;;;;;;34.53;34.85;101253.94;6190863;23;20384;-81
2022/06/02 12:11:42;;;;;;;14.07;9.55;;;;;;;34.65;34.84;101246.22;6190792;23;20078;-83
2022/06/02 12:14:44;;;;;;;18.60;10.63;;;;;;;34.77;34.53;101245.06;6190493;23;20082;-84
2022/06/02 12:17:48;;;;;;;12.85;10.30;;;;;;;34.76;34.22;101238.72;6180971;23;20075;-82
2022/06/02 12:21:07;;;;;;;10.40;9.38;;;;;;;34.92;34.08;101233.94;6217426;23;20032;-82
2022/06/02 12:23:34;;;;;;;11.13;9.85;;;;;;;35.01;33.94;101237.75;6180828;23;20075;-82
2022/06/02 12:26:05;;;;;;;15.60;10.63;;;;;;;34.95;34.12;101216.81;6190241;23;20028;-82
2022/06/02 12:28:47;;;;;;;;;;;;;;;35.29;33.85;101232.63;6191201;23;20094;-82
2022/06/02 12:31:37;;;;;;;16.00;10.65;;;;;;;35.18;33.22;101175.88;6219536;23;19915;-82
2022/06/02 12:34:10;;;;;;;;;;;;;;;35.49;33.52;101228.88;6193668;23;20023;-83
2022/06/02 12:37:17;;;;;;;16.10;10.25;;;;;;;35.66;33.51;101225.72;6193321;23;20022;-83
2022/06/02 12:40:02;;;;;;;11.23;9.55;;;;;;;35.80;32.69;101226.69;6182836;23;20021;-82
2022/06/02 12:42:48;;;;;;;20.05;10.07;;;;;;;35.92;31.96;101218.81;6192164;23;20020;-81
2022/06/02 12:45:36;;;;;;;11.32;10.10;;;;;;;36.03;32.74;101213.22;6209312;23;20094;-82
2022/06/02 12:48:12;;;;;;;13.25;9.77;;;;;;;36.16;32.32;101218.06;6192823;23;20090;-82
2022/06/02 12:51:00;;;;;;;11.27;8.75;;;;;;;36.36;31.94;101214.22;6192516;23;20016;-82
2022/06/02 12:53:48;;;;;;;12.63;8.20;;;;;;;36.30;31.58;101176.72;6192923;23;20032;-81
2022/06/02 12:56:36;;;;;;;10.93;9.23;;;;;;;36.53;31.02;101210.97;6192891;23;20070;-82
2022/06/02 12:59:09;;;;;;;14.80;9.10;;;;;;;36.58;31.63;101216.44;6182798;23;20082;-83
2022/06/02 13:01:48;;;;;;;14.90;9.25;;;;;;;36.00;30.75;101108.78;6192343;23;20389;-82